sensor_id;sensor_type;location;lat;lon;timestamp;P1;durP1;ratioP1;P2;durP2;ratioP2
19965;SDS011;10144;50.874;4.762;2023-02-01T00:01:14;43.97;;;12.40;;
19965;SDS011;10144;50.874;4.762;2023-02-01T00:03:42;40.33;;;11.67;;
19965;SDS011;10144;50.874;4.762;2023-02-01T00:06:09;42.63;;;12.27;;
19965;SDS011;10144;50.874;4.762;2023-02-01T00:08:42;42.10;;;11.47;;
19965;SDS011;10144;50.874;4.762;2023-02-01T00:11:10;52.40;;;12.10;;
19965;SDS011;10144;50.874;4.762;2023-02-01T00:13:40;40.80;;;11.60;;
19965;SDS011;10144;50.874;4.762;2023-02-01T00:16:40;34.17;;;9.73;;
19965;SDS011;10144;50.874;4.762;2023-02-01T00:19:12;36.40;;;9.63;;
19965;SDS011;10144;50.874;4.762;2023-02-01T00:21:39;36.50;;;9.23;;
19965;SDS011;10144;50.874;4.762;2023-02-01T00:24:11;30.80;;;8.73;;
19965;SDS011;10144;50.874;4.762;2023-02-01T00:26:41;38.87;;;7.83;;
19965;SDS011;10144;50.874;4.762;2023-02-01T00:29:22;29.20;;;7.53;;
19965;SDS011;10144;50.874;4.762;2023-02-01T00:31:49;33.43;;;7.53;;
19965;SDS011;10144;50.874;4.762;2023-02-01T00:34:19;36.27;;;7.73;;
19965;SDS011;10144;50.874;4.762;2023-02-01T00:36:49;34.80;;;7.73;;
19965;SDS011;10144;50.874;4.762;2023-02-01T00:39:16;25.70;;;6.40;;
19965;SDS011;10144;50.874;4.762;2023-02-01T00:41:45;35.67;;;7.43;;
19965;SDS011;10144;50.874;4.762;2023-02-01T00:46:43;34.60;;;7.67;;
19965;SDS011;10144;50.874;4.762;2023-02-01T00:51:39;34.73;;;7.47;;
19965;SDS011;10144;50.874;4.762;2023-02-01T00:56:37;29.67;;;8.03;;
19965;SDS011;10144;50.874;4.762;2023-02-01T01:01:34;38.10;;;8.77;;
19965;SDS011;10144;50.874;4.762;2023-02-01T01:04:02;33.60;;;8.97;;
19965;SDS011;10144;50.874;4.762;2023-02-01T01:06:32;36.40;;;8.30;;
19965;SDS011;10144;50.874;4.762;2023-02-01T01:09:05;42.50;;;8.00;;
19965;SDS011;10144;50.874;4.762;2023-02-01T01:11:38;35.83;;;7.90;;
19965;SDS011;10144;50.874;4.762;2023-02-01T01:14:04;32.93;;;8.10;;
19965;SDS011;10144;50.874;4.762;2023-02-01T01:19:06;28.23;;;8.27;;
19965;SDS011;10144;50.874;4.762;2023-02-01T01:21:33;36.13;;;8.57;;
19965;SDS011;10144;50.874;4.762;2023-02-01T01:24:00;28.83;;;8.43;;
19965;SDS011;10144;50.874;4.762;2023-02-01T01:28:58;35.63;;;8.20;;
19965;SDS011;10144;50.874;4.762;2023-02-01T01:31:27;36.23;;;7.87;;
19965;SDS011;10144;50.874;4.762;2023-02-01T01:36:25;28.10;;;6.87;;
19965;SDS011;10144;50.874;4.762;2023-02-01T01:41:53;25.57;;;6.73;;
19965;SDS011;10144;50.874;4.762;2023-02-01T01:47:26;41.07;;;6.40;;
19965;SDS011;10144;50.874;4.762;2023-02-01T01:50:01;33.30;;;6.53;;
19965;SDS011;10144;50.874;4.762;2023-02-01T01:55:01;37.13;;;7.00;;
19965;SDS011;10144;50.874;4.762;2023-02-01T01:57:32;26.53;;;7.17;;
19965;SDS011;10144;50.874;4.762;2023-02-01T02:02:35;34.00;;;6.70;;
19965;SDS011;10144;50.874;4.762;2023-02-01T02:05:03;28.37;;;6.43;;
19965;SDS011;10144;50.874;4.762;2023-02-01T02:07:43;39.33;;;6.90;;
19965;SDS011;10144;50.874;4.762;2023-02-01T02:10:13;22.43;;;5.43;;
19965;SDS011;10144;50.874;4.762;2023-02-01T02:12:43;34.83;;;6.00;;
19965;SDS011;10144;50.874;4.762;2023-02-01T02:15:15;26.83;;;5.33;;
19965;SDS011;10144;50.874;4.762;2023-02-01T02:32:23;29.47;;;4.53;;
19965;SDS011;10144;50.874;4.762;2023-02-01T02:38:08;24.67;;;3.83;;
19965;SDS011;10144;50.874;4.762;2023-02-01T02:43:46;26.60;;;4.50;;
19965;SDS011;10144;50.874;4.762;2023-02-01T02:46:39;23.13;;;3.57;;
19965;SDS011;10144;50.874;4.762;2023-02-01T02:49:29;29.97;;;3.60;;
19965;SDS011;10144;50.874;4.762;2023-02-01T02:55:53;24.33;;;3.70;;
19965;SDS011;10144;50.874;4.762;2023-02-01T02:58:43;17.40;;;3.20;;
19965;SDS011;10144;50.874;4.762;2023-02-01T03:01:30;22.37;;;3.90;;
19965;SDS011;10144;50.874;4.762;2023-02-01T03:04:19;25.20;;;4.00;;
19965;SDS011;10144;50.874;4.762;2023-02-01T03:06:47;23.57;;;3.50;;
19965;SDS011;10144;50.874;4.762;2023-02-01T03:09:13;27.57;;;3.60;;
19965;SDS011;10144;50.874;4.762;2023-02-01T03:11:49;27.57;;;3.77;;
19965;SDS011;10144;50.874;4.762;2023-02-01T03:14:43;35.07;;;3.50;;
19965;SDS011;10144;50.874;4.762;2023-02-01T03:17:12;31.03;;;4.20;;
19965;SDS011;10144;50.874;4.762;2023-02-01T03:22:14;22.57;;;3.60;;
19965;SDS011;10144;50.874;4.762;2023-02-01T03:24:54;26.73;;;3.93;;
19965;SDS011;10144;50.874;4.762;2023-02-01T03:27:35;13.73;;;3.30;;
19965;SDS011;10144;50.874;4.762;2023-02-01T03:30:25;26.87;;;3.27;;
19965;SDS011;10144;50.874;4.762;2023-02-01T03:32:55;21.53;;;3.07;;
19965;SDS011;10144;50.874;4.762;2023-02-01T03:38:38;33.90;;;3.57;;
19965;SDS011;10144;50.874;4.762;2023-02-01T03:44:32;16.60;;;3.30;;
19965;SDS011;10144;50.874;4.762;2023-02-01T03:47:08;29.10;;;3.67;;
19965;SDS011;10144;50.874;4.762;2023-02-01T03:49:45;18.70;;;3.07;;
19965;SDS011;10144;50.874;4.762;2023-02-01T04:39:39;26.57;;;3.60;;
19965;SDS011;10144;50.874;4.762;2023-02-01T06:17:54;34.57;;;3.83;;
19965;SDS011;10144;50.874;4.762;2023-02-01T06:23:45;26.17;;;3.37;;
19965;SDS011;10144;50.874;4.762;2023-02-01T06:29:34;25.00;;;3.60;;
19965;SDS011;10144;50.874;4.762;2023-02-01T06:35:23;25.60;;;3.20;;
19965;SDS011;10144;50.874;4.762;2023-02-01T06:41:14;28.57;;;4.10;;
19965;SDS011;10144;50.874;4.762;2023-02-01T06:47:04;21.67;;;3.63;;
19965;SDS011;10144;50.874;4.762;2023-02-01T06:53:01;28.07;;;3.70;;
19965;SDS011;10144;50.874;4.762;2023-02-01T11:07:19;15.00;;;3.03;;
19965;SDS011;10144;50.874;4.762;2023-02-01T11:09:53;17.08;;;2.70;;
19965;SDS011;10144;50.874;4.762;2023-02-01T11:12:29;17.50;;;2.90;;
19965;SDS011;10144;50.874;4.762;2023-02-01T11:34:25;19.88;;;3.03;;
19965;SDS011;10144;50.874;4.762;2023-02-01T11:39:58;13.18;;;2.20;;
19965;SDS011;10144;50.874;4.762;2023-02-01T11:42:26;12.70;;;2.20;;
19965;SDS011;10144;50.874;4.762;2023-02-01T11:48:02;14.10;;;2.13;;
19965;SDS011;10144;50.874;4.762;2023-02-01T11:50:37;13.80;;;2.97;;
19965;SDS011;10144;50.874;4.762;2023-02-01T12:09:45;12.45;;;2.17;;
19965;SDS011;10144;50.874;4.762;2023-02-01T12:20:21;15.05;;;2.20;;
19965;SDS011;10144;50.874;4.762;2023-02-01T12:36:53;12.33;;;2.10;;
19965;SDS011;10144;50.874;4.762;2023-02-01T12:51:01;13.20;;;2.03;;
19965;SDS011;10144;50.874;4.762;2023-02-01T12:56:14;13.83;;;1.83;;
19965;SDS011;10144;50.874;4.762;2023-02-01T12:58:46;11.43;;;2.17;;
19965;SDS011;10144;50.874;4.762;2023-02-01T13:01:21;16.80;;;2.17;;
19965;SDS011;10144;50.874;4.762;2023-02-01T13:11:55;14.83;;;1.80;;
19965;SDS011;10144;50.874;4.762;2023-02-01T13:14:32;13.40;;;1.73;;
19965;SDS011;10144;50.874;4.762;2023-02-01T13:25:37;17.17;;;2.10;;
19965;SDS011;10144;50.874;4.762;2023-02-01T13:45:24;14.03;;;1.70;;
19965;SDS011;10144;50.874;4.762;2023-02-01T13:47:58;11.47;;;1.67;;
19965;SDS011;10144;50.874;4.762;2023-02-01T13:52:59;10.90;;;2.20;;
19965;SDS011;10144;50.874;4.762;2023-02-01T13:55:30;17.17;;;1.90;;
19965;SDS011;10144;50.874;4.762;2023-02-01T13:58:02;13.60;;;1.70;;
19965;SDS011;10144;50.874;4.762;2023-02-01T14:00:34;14.93;;;1.70;;
19965;SDS011;10144;50.874;4.762;2023-02-01T14:11:04;15.50;;;2.13;;
19965;SDS011;10144;50.874;4.762;2023-02-01T14:13:38;20.77;;;2.33;;
19965;SDS011;10144;50.874;4.762;2023-02-01T14:21:52;17.00;;;2.20;;
19965;SDS011;10144;50.874;4.762;2023-02-01T14:31:39;9.97;;;1.83;;
19965;SDS011;10144;50.874;4.762;2023-02-01T14:34:16;16.87;;;2.10;;
19965;SDS011;10144;50.874;4.762;2023-02-01T14:36:59;11.93;;;2.10;;
19965;SDS011;10144;50.874;4.762;2023-02-01T14:39:49;18.77;;;2.53;;
19965;SDS011;10144;50.874;4.762;2023-02-01T14:44:55;11.77;;;1.87;;
19965;SDS011;10144;50.874;4.762;2023-02-01T14:47:42;22.83;;;2.80;;
19965;SDS011;10144;50.874;4.762;2023-02-01T14:52:37;16.83;;;1.90;;
19965;SDS011;10144;50.874;4.762;2023-02-01T15:00:47;15.17;;;2.40;;
19965;SDS011;10144;50.874;4.762;2023-02-01T15:03:31;10.17;;;1.80;;
19965;SDS011;10144;50.874;4.762;2023-02-01T15:06:02;11.30;;;2.00;;
19965;SDS011;10144;50.874;4.762;2023-02-01T15:08:31;13.77;;;2.50;;
19965;SDS011;10144;50.874;4.762;2023-02-01T15:11:04;20.73;;;2.50;;
19965;SDS011;10144;50.874;4.762;2023-02-01T15:13:36;12.60;;;2.27;;
19965;SDS011;10144;50.874;4.762;2023-02-01T15:18:40;16.43;;;2.40;;
19965;SDS011;10144;50.874;4.762;2023-02-01T15:21:06;11.93;;;2.43;;
19965;SDS011;10144;50.874;4.762;2023-02-01T15:23:46;8.70;;;2.17;;
19965;SDS011;10144;50.874;4.762;2023-02-01T15:26:29;19.13;;;2.70;;
19965;SDS011;10144;50.874;4.762;2023-02-01T15:28:59;14.90;;;2.57;;
19965;SDS011;10144;50.874;4.762;2023-02-01T15:31:42;16.30;;;2.33;;
19965;SDS011;10144;50.874;4.762;2023-02-01T15:34:13;15.00;;;2.10;;
19965;SDS011;10144;50.874;4.762;2023-02-01T15:36:39;12.13;;;2.80;;
19965;SDS011;10144;50.874;4.762;2023-02-01T15:41:38;13.63;;;2.43;;
19965;SDS011;10144;50.874;4.762;2023-02-01T15:44:05;16.10;;;2.13;;
19965;SDS011;10144;50.874;4.762;2023-02-01T15:46:43;20.73;;;3.13;;
19965;SDS011;10144;50.874;4.762;2023-02-01T15:49:26;19.30;;;3.00;;
19965;SDS011;10144;50.874;4.762;2023-02-01T15:51:55;17.47;;;2.50;;
19965;SDS011;10144;50.874;4.762;2023-02-01T15:54:28;13.90;;;2.73;;
19965;SDS011;10144;50.874;4.762;2023-02-01T15:57:00;17.97;;;3.27;;
19965;SDS011;10144;50.874;4.762;2023-02-01T16:00:00;23.03;;;3.10;;
19965;SDS011;10144;50.874;4.762;2023-02-01T16:02:28;12.93;;;2.80;;
19965;SDS011;10144;50.874;4.762;2023-02-01T16:05:32;10.70;;;2.23;;
19965;SDS011;10144;50.874;4.762;2023-02-01T16:10:38;18.30;;;2.60;;
19965;SDS011;10144;50.874;4.762;2023-02-01T16:13:08;19.17;;;2.70;;
19965;SDS011;10144;50.874;4.762;2023-02-01T16:15:34;23.43;;;2.83;;
19965;SDS011;10144;50.874;4.762;2023-02-01T16:18:00;20.40;;;2.90;;
19965;SDS011;10144;50.874;4.762;2023-02-01T16:20:26;18.50;;;2.57;;
19965;SDS011;10144;50.874;4.762;2023-02-01T16:22:52;20.07;;;2.40;;
19965;SDS011;10144;50.874;4.762;2023-02-01T16:25:18;15.37;;;2.80;;
19965;SDS011;10144;50.874;4.762;2023-02-01T16:30:13;16.50;;;3.00;;
19965;SDS011;10144;50.874;4.762;2023-02-01T16:32:39;19.37;;;3.10;;
19965;SDS011;10144;50.874;4.762;2023-02-01T16:35:05;17.10;;;2.80;;
19965;SDS011;10144;50.874;4.762;2023-02-01T16:37:49;19.70;;;2.80;;
19965;SDS011;10144;50.874;4.762;2023-02-01T16:40:15;23.87;;;3.73;;
19965;SDS011;10144;50.874;4.762;2023-02-01T16:42:41;20.90;;;3.70;;
19965;SDS011;10144;50.874;4.762;2023-02-01T16:45:07;15.33;;;2.90;;
19965;SDS011;10144;50.874;4.762;2023-02-01T16:47:34;11.60;;;2.53;;
19965;SDS011;10144;50.874;4.762;2023-02-01T16:50:02;18.40;;;2.93;;
19965;SDS011;10144;50.874;4.762;2023-02-01T16:52:28;21.97;;;3.40;;
19965;SDS011;10144;50.874;4.762;2023-02-01T16:54:54;20.97;;;2.87;;
19965;SDS011;10144;50.874;4.762;2023-02-01T16:57:20;14.87;;;2.73;;
19965;SDS011;10144;50.874;4.762;2023-02-01T16:59:49;18.43;;;3.00;;
19965;SDS011;10144;50.874;4.762;2023-02-01T17:02:15;19.23;;;3.63;;
19965;SDS011;10144;50.874;4.762;2023-02-01T17:04:45;21.13;;;2.90;;
19965;SDS011;10144;50.874;4.762;2023-02-01T17:07:11;22.70;;;3.00;;
19965;SDS011;10144;50.874;4.762;2023-02-01T17:09:38;17.33;;;2.83;;
19965;SDS011;10144;50.874;4.762;2023-02-01T17:12:05;15.07;;;3.37;;
19965;SDS011;10144;50.874;4.762;2023-02-01T17:14:32;21.53;;;3.23;;
19965;SDS011;10144;50.874;4.762;2023-02-01T17:17:04;19.10;;;2.90;;
19965;SDS011;10144;50.874;4.762;2023-02-01T17:19:31;18.40;;;3.13;;
19965;SDS011;10144;50.874;4.762;2023-02-01T17:21:57;27.03;;;3.13;;
19965;SDS011;10144;50.874;4.762;2023-02-01T17:24:27;16.60;;;2.90;;
19965;SDS011;10144;50.874;4.762;2023-02-01T17:26:57;17.30;;;3.10;;
19965;SDS011;10144;50.874;4.762;2023-02-01T17:29:32;18.40;;;2.70;;
19965;SDS011;10144;50.874;4.762;2023-02-01T17:31:59;15.73;;;2.53;;
19965;SDS011;10144;50.874;4.762;2023-02-01T17:34:26;20.73;;;3.10;;
19965;SDS011;10144;50.874;4.762;2023-02-01T17:36:52;23.20;;;3.07;;
19965;SDS011;10144;50.874;4.762;2023-02-01T17:39:18;20.50;;;2.80;;
19965;SDS011;10144;50.874;4.762;2023-02-01T17:44:54;19.57;;;3.17;;
19965;SDS011;10144;50.874;4.762;2023-02-01T17:47:23;29.07;;;4.13;;
19965;SDS011;10144;50.874;4.762;2023-02-01T17:49:48;19.20;;;3.07;;
19965;SDS011;10144;50.874;4.762;2023-02-01T17:52:21;15.17;;;2.90;;
19965;SDS011;10144;50.874;4.762;2023-02-01T17:54:48;27.67;;;3.33;;
19965;SDS011;10144;50.874;4.762;2023-02-01T17:57:17;21.07;;;3.10;;
19965;SDS011;10144;50.874;4.762;2023-02-01T17:59:43;28.87;;;3.30;;
19965;SDS011;10144;50.874;4.762;2023-02-01T18:02:19;19.63;;;3.40;;
19965;SDS011;10144;50.874;4.762;2023-02-01T18:04:46;16.87;;;3.40;;
19965;SDS011;10144;50.874;4.762;2023-02-01T18:07:13;19.43;;;2.87;;
19965;SDS011;10144;50.874;4.762;2023-02-01T18:09:42;21.60;;;2.83;;
19965;SDS011;10144;50.874;4.762;2023-02-01T18:12:13;18.13;;;2.83;;
19965;SDS011;10144;50.874;4.762;2023-02-01T18:14:43;26.30;;;3.87;;
19965;SDS011;10144;50.874;4.762;2023-02-01T18:17:09;28.73;;;3.53;;
19965;SDS011;10144;50.874;4.762;2023-02-01T18:19:36;23.23;;;3.73;;
19965;SDS011;10144;50.874;4.762;2023-02-01T18:22:04;25.73;;;3.17;;
19965;SDS011;10144;50.874;4.762;2023-02-01T18:24:31;16.57;;;2.97;;
19965;SDS011;10144;50.874;4.762;2023-02-01T18:26:59;20.07;;;3.00;;
19965;SDS011;10144;50.874;4.762;2023-02-01T18:29:25;23.63;;;3.77;;
19965;SDS011;10144;50.874;4.762;2023-02-01T18:31:52;30.17;;;3.70;;
19965;SDS011;10144;50.874;4.762;2023-02-01T18:34:17;27.73;;;3.40;;
19965;SDS011;10144;50.874;4.762;2023-02-01T18:36:53;24.87;;;3.67;;
19965;SDS011;10144;50.874;4.762;2023-02-01T18:39:21;21.53;;;3.70;;
19965;SDS011;10144;50.874;4.762;2023-02-01T18:44:18;25.30;;;3.27;;
19965;SDS011;10144;50.874;4.762;2023-02-01T18:46:43;26.57;;;4.20;;
19965;SDS011;10144;50.874;4.762;2023-02-01T18:49:09;18.90;;;3.00;;
19965;SDS011;10144;50.874;4.762;2023-02-01T18:51:39;29.00;;;3.97;;
19965;SDS011;10144;50.874;4.762;2023-02-01T18:56:45;18.13;;;3.53;;
19965;SDS011;10144;50.874;4.762;2023-02-01T18:59:10;26.40;;;3.57;;
19965;SDS011;10144;50.874;4.762;2023-02-01T19:01:42;21.47;;;3.40;;
19965;SDS011;10144;50.874;4.762;2023-02-01T19:04:08;25.57;;;4.03;;
19965;SDS011;10144;50.874;4.762;2023-02-01T19:06:44;30.23;;;4.07;;
19965;SDS011;10144;50.874;4.762;2023-02-01T19:09:09;23.50;;;4.43;;
19965;SDS011;10144;50.874;4.762;2023-02-01T19:11:35;29.67;;;3.80;;
19965;SDS011;10144;50.874;4.762;2023-02-01T19:14:00;21.10;;;3.37;;
19965;SDS011;10144;50.874;4.762;2023-02-01T19:16:32;19.93;;;3.43;;
19965;SDS011;10144;50.874;4.762;2023-02-01T19:19:02;25.73;;;3.83;;
19965;SDS011;10144;50.874;4.762;2023-02-01T19:21:29;21.63;;;4.07;;
19965;SDS011;10144;50.874;4.762;2023-02-01T19:23:56;23.57;;;4.03;;
19965;SDS011;10144;50.874;4.762;2023-02-01T19:26:21;21.03;;;3.60;;
19965;SDS011;10144;50.874;4.762;2023-02-01T19:28:48;26.43;;;4.10;;
19965;SDS011;10144;50.874;4.762;2023-02-01T19:33:42;21.93;;;3.97;;
19965;SDS011;10144;50.874;4.762;2023-02-01T19:36:08;20.97;;;3.63;;
19965;SDS011;10144;50.874;4.762;2023-02-01T19:38:35;29.57;;;4.37;;
19965;SDS011;10144;50.874;4.762;2023-02-01T19:41:02;30.07;;;4.13;;
19965;SDS011;10144;50.874;4.762;2023-02-01T19:43:28;23.70;;;4.07;;
19965;SDS011;10144;50.874;4.762;2023-02-01T19:45:54;25.17;;;4.20;;
19965;SDS011;10144;50.874;4.762;2023-02-01T19:48:23;26.07;;;3.70;;
19965;SDS011;10144;50.874;4.762;2023-02-01T19:50:49;20.60;;;4.20;;
19965;SDS011;10144;50.874;4.762;2023-02-01T19:53:18;24.27;;;3.90;;
19965;SDS011;10144;50.874;4.762;2023-02-01T19:55:52;31.00;;;4.63;;
19965;SDS011;10144;50.874;4.762;2023-02-01T20:01:05;24.47;;;3.77;;
19965;SDS011;10144;50.874;4.762;2023-02-01T20:03:32;23.07;;;3.87;;
19965;SDS011;10144;50.874;4.762;2023-02-01T20:05:58;18.57;;;3.77;;
19965;SDS011;10144;50.874;4.762;2023-02-01T20:08:24;29.33;;;4.17;;
19965;SDS011;10144;50.874;4.762;2023-02-01T20:13:20;21.33;;;3.90;;
19965;SDS011;10144;50.874;4.762;2023-02-01T20:15:46;41.20;;;6.00;;
19965;SDS011;10144;50.874;4.762;2023-02-01T20:18:13;31.93;;;6.93;;
19965;SDS011;10144;50.874;4.762;2023-02-01T20:20:41;26.13;;;4.33;;
19965;SDS011;10144;50.874;4.762;2023-02-01T20:23:07;29.20;;;4.50;;
19965;SDS011;10144;50.874;4.762;2023-02-01T20:25:35;28.77;;;5.17;;
19965;SDS011;10144;50.874;4.762;2023-02-01T20:28:03;29.87;;;4.43;;
19965;SDS011;10144;50.874;4.762;2023-02-01T20:30:31;25.77;;;5.17;;
19965;SDS011;10144;50.874;4.762;2023-02-01T20:32:57;35.37;;;4.70;;
19965;SDS011;10144;50.874;4.762;2023-02-01T20:35:22;32.83;;;4.77;;
19965;SDS011;10144;50.874;4.762;2023-02-01T20:37:48;26.20;;;4.40;;
19965;SDS011;10144;50.874;4.762;2023-02-01T20:42:45;33.47;;;5.50;;
19965;SDS011;10144;50.874;4.762;2023-02-01T20:45:11;30.63;;;5.43;;
19965;SDS011;10144;50.874;4.762;2023-02-01T20:47:37;34.10;;;4.93;;
19965;SDS011;10144;50.874;4.762;2023-02-01T20:50:07;32.27;;;4.90;;
19965;SDS011;10144;50.874;4.762;2023-02-01T20:52:33;39.47;;;6.30;;
19965;SDS011;10144;50.874;4.762;2023-02-01T20:54:59;37.93;;;4.93;;
19965;SDS011;10144;50.874;4.762;2023-02-01T20:57:25;29.77;;;4.20;;
19965;SDS011;10144;50.874;4.762;2023-02-01T20:59:50;27.90;;;4.47;;
19965;SDS011;10144;50.874;4.762;2023-02-01T21:02:17;32.40;;;5.03;;
19965;SDS011;10144;50.874;4.762;2023-02-01T21:04:48;25.63;;;4.40;;
19965;SDS011;10144;50.874;4.762;2023-02-01T21:07:14;30.33;;;4.53;;
19965;SDS011;10144;50.874;4.762;2023-02-01T21:09:41;28.60;;;4.70;;
19965;SDS011;10144;50.874;4.762;2023-02-01T21:12:10;26.40;;;4.63;;
19965;SDS011;10144;50.874;4.762;2023-02-01T21:14:36;30.53;;;4.60;;
19965;SDS011;10144;50.874;4.762;2023-02-01T21:17:02;32.63;;;4.23;;
19965;SDS011;10144;50.874;4.762;2023-02-01T21:19:28;30.53;;;4.57;;
19965;SDS011;10144;50.874;4.762;2023-02-01T21:21:58;22.43;;;4.10;;
19965;SDS011;10144;50.874;4.762;2023-02-01T21:24:26;24.17;;;4.20;;
19965;SDS011;10144;50.874;4.762;2023-02-01T21:26:51;29.43;;;4.47;;
19965;SDS011;10144;50.874;4.762;2023-02-01T21:29:17;18.90;;;4.20;;
19965;SDS011;10144;50.874;4.762;2023-02-01T21:31:43;39.63;;;4.47;;
19965;SDS011;10144;50.874;4.762;2023-02-01T21:34:09;28.87;;;4.43;;
19965;SDS011;10144;50.874;4.762;2023-02-01T21:36:35;32.13;;;4.20;;
19965;SDS011;10144;50.874;4.762;2023-02-01T21:39:03;33.20;;;4.80;;
19965;SDS011;10144;50.874;4.762;2023-02-01T21:41:31;30.47;;;4.23;;
19965;SDS011;10144;50.874;4.762;2023-02-01T21:44:16;26.43;;;4.40;;
19965;SDS011;10144;50.874;4.762;2023-02-01T21:46:43;26.50;;;4.23;;
19965;SDS011;10144;50.874;4.762;2023-02-01T21:49:13;28.87;;;4.33;;
19965;SDS011;10144;50.874;4.762;2023-02-01T21:51:40;28.20;;;5.00;;
19965;SDS011;10144;50.874;4.762;2023-02-01T21:54:07;31.50;;;4.53;;
19965;SDS011;10144;50.874;4.762;2023-02-01T21:56:34;24.43;;;4.40;;
19965;SDS011;10144;50.874;4.762;2023-02-01T21:59:03;29.03;;;5.00;;
19965;SDS011;10144;50.874;4.762;2023-02-01T22:01:31;17.80;;;3.73;;
19965;SDS011;10144;50.874;4.762;2023-02-01T22:04:00;27.00;;;3.70;;
19965;SDS011;10144;50.874;4.762;2023-02-01T22:06:37;23.87;;;3.73;;
19965;SDS011;10144;50.874;4.762;2023-02-01T22:09:22;16.07;;;3.93;;
19965;SDS011;10144;50.874;4.762;2023-02-01T22:11:53;29.13;;;3.70;;
19965;SDS011;10144;50.874;4.762;2023-02-01T22:14:21;25.97;;;3.93;;
19965;SDS011;10144;50.874;4.762;2023-02-01T22:16:50;19.77;;;3.37;;
19965;SDS011;10144;50.874;4.762;2023-02-01T22:19:18;25.77;;;3.80;;
19965;SDS011;10144;50.874;4.762;2023-02-01T22:21:49;24.33;;;4.07;;
19965;SDS011;10144;50.874;4.762;2023-02-01T22:29:14;25.43;;;3.73;;
19965;SDS011;10144;50.874;4.762;2023-02-01T22:31:49;32.80;;;4.57;;
19965;SDS011;10144;50.874;4.762;2023-02-01T22:34:17;27.00;;;3.83;;
19965;SDS011;10144;50.874;4.762;2023-02-01T22:36:46;27.73;;;4.13;;
19965;SDS011;10144;50.874;4.762;2023-02-01T22:39:20;25.87;;;3.33;;
19965;SDS011;10144;50.874;4.762;2023-02-01T22:41:49;30.83;;;3.80;;
19965;SDS011;10144;50.874;4.762;2023-02-01T22:44:15;28.67;;;3.77;;
19965;SDS011;10144;50.874;4.762;2023-02-01T22:46:41;30.73;;;4.00;;
19965;SDS011;10144;50.874;4.762;2023-02-01T22:52:16;26.27;;;3.90;;
19965;SDS011;10144;50.874;4.762;2023-02-01T22:54:43;33.17;;;4.57;;
19965;SDS011;10144;50.874;4.762;2023-02-01T22:57:11;31.43;;;4.10;;
19965;SDS011;10144;50.874;4.762;2023-02-01T22:59:40;21.43;;;3.83;;
19965;SDS011;10144;50.874;4.762;2023-02-01T23:02:06;20.00;;;3.83;;
19965;SDS011;10144;50.874;4.762;2023-02-01T23:04:31;30.73;;;4.53;;
19965;SDS011;10144;50.874;4.762;2023-02-01T23:07:00;27.43;;;3.67;;
19965;SDS011;10144;50.874;4.762;2023-02-01T23:09:26;20.97;;;3.20;;
19965;SDS011;10144;50.874;4.762;2023-02-01T23:11:54;29.70;;;4.13;;
19965;SDS011;10144;50.874;4.762;2023-02-01T23:14:21;22.43;;;3.90;;
19965;SDS011;10144;50.874;4.762;2023-02-01T23:16:50;32.43;;;4.20;;
19965;SDS011;10144;50.874;4.762;2023-02-01T23:21:51;24.67;;;3.80;;
19965;SDS011;10144;50.874;4.762;2023-02-01T23:24:31;21.37;;;3.53;;
19965;SDS011;10144;50.874;4.762;2023-02-01T23:29:27;29.40;;;3.33;;
19965;SDS011;10144;50.874;4.762;2023-02-01T23:31:53;20.40;;;3.33;;
19965;SDS011;10144;50.874;4.762;2023-02-01T23:34:19;30.90;;;4.27;;
19965;SDS011;10144;50.874;4.762;2023-02-01T23:36:44;28.20;;;3.90;;
19965;SDS011;10144;50.874;4.762;2023-02-01T23:39:10;18.37;;;3.50;;
19965;SDS011;10144;50.874;4.762;2023-02-01T23:41:38;28.97;;;3.60;;
19965;SDS011;10144;50.874;4.762;2023-02-01T23:44:03;13.90;;;3.00;;
19965;SDS011;10144;50.874;4.762;2023-02-01T23:46:38;21.60;;;3.90;;
19965;SDS011;10144;50.874;4.762;2023-02-01T23:49:10;25.97;;;3.60;;
19965;SDS011;10144;50.874;4.762;2023-02-01T23:54:09;27.57;;;3.60;;
19965;SDS011;10144;50.874;4.762;2023-02-01T23:56:42;23.63;;;3.70;;
19965;SDS011;10144;50.874;4.762;2023-02-01T23:59:15;17.10;;;2.93;;
